createdAt,value
2023-05-06T00:01:24.479Z,11.90
2023-05-06T00:03:52.150Z,11.90
2023-05-06T00:06:19.341Z,11.90
2023-05-06T00:08:46.729Z,11.80
2023-05-06T00:11:13.898Z,11.80
2023-05-06T00:13:41.531Z,11.70
2023-05-06T00:16:08.733Z,11.70
2023-05-06T00:18:35.925Z,11.70
2023-05-06T00:21:02.908Z,11.70
2023-05-06T00:23:29.846Z,11.60
2023-05-06T00:25:56.847Z,11.60
2023-05-06T00:28:23.879Z,11.60
2023-05-06T00:30:50.815Z,11.60
2023-05-06T00:33:17.768Z,11.60
2023-05-06T00:35:44.676Z,11.60
2023-05-06T00:38:15.258Z,11.60
2023-05-06T00:40:42.369Z,11.60
2023-05-06T00:43:09.443Z,11.60
2023-05-06T00:45:36.830Z,11.70
2023-05-06T00:48:05.764Z,11.60
2023-05-06T00:50:34.850Z,11.60
2023-05-06T00:53:04.244Z,11.60
2023-05-06T00:55:31.718Z,11.50
2023-05-06T00:57:59.179Z,11.50
2023-05-06T01:00:26.457Z,11.50
2023-05-06T01:02:53.744Z,11.40
2023-05-06T01:05:23.058Z,11.40
2023-05-06T01:08:07.433Z,11.40
2023-05-06T01:10:53.614Z,11.40
2023-05-06T01:14:11.480Z,11.40
2023-05-06T01:16:41.529Z,11.40
2023-05-06T01:19:18.648Z,11.40
2023-05-06T01:21:47.992Z,11.30
2023-05-06T01:24:15.004Z,11.30
2023-05-06T01:26:44.049Z,11.30
2023-05-06T01:29:12.214Z,11.30
2023-05-06T01:31:48.727Z,11.30
2023-05-06T01:34:28.322Z,11.30
2023-05-06T01:37:22.685Z,11.30
2023-05-06T01:39:50.286Z,11.30
2023-05-06T01:42:18.052Z,11.30
2023-05-06T01:44:45.620Z,11.30
2023-05-06T01:47:13.888Z,11.30
2023-05-06T01:49:41.115Z,11.30
2023-05-06T01:52:08.224Z,11.30
2023-05-06T01:54:35.229Z,11.30
2023-05-06T01:57:02.838Z,11.30
2023-05-06T01:59:29.935Z,11.30
2023-05-06T02:01:57.328Z,11.30
2023-05-06T02:04:24.414Z,11.30
2023-05-06T02:06:51.494Z,11.30
2023-05-06T02:09:18.447Z,11.30
2023-05-06T02:11:46.200Z,11.30
2023-05-06T02:14:13.569Z,11.30
2023-05-06T02:16:40.604Z,11.30
2023-05-06T02:19:07.631Z,11.20
2023-05-06T02:21:34.612Z,11.20
2023-05-06T02:24:01.578Z,11.20
2023-05-06T02:26:28.531Z,11.20
2023-05-06T02:28:55.566Z,11.20
2023-05-06T02:31:22.725Z,11.20
2023-05-06T02:33:50.511Z,11.10
2023-05-06T02:36:17.577Z,11.10
2023-05-06T02:38:44.495Z,11.00
2023-05-06T02:41:11.405Z,11.00
2023-05-06T02:43:38.426Z,11.00
2023-05-06T02:46:05.466Z,10.90
2023-05-06T02:48:32.483Z,10.90
2023-05-06T02:51:00.000Z,10.90
2023-05-06T02:53:26.975Z,10.80
2023-05-06T02:55:53.939Z,10.80
2023-05-06T02:58:20.897Z,10.80
2023-05-06T03:00:47.848Z,10.80
2023-05-06T03:03:14.961Z,10.70
2023-05-06T03:05:41.942Z,10.70
2023-05-06T03:08:08.981Z,10.70
2023-05-06T03:10:36.043Z,10.70
2023-05-06T03:13:03.317Z,10.70
2023-05-06T03:15:30.443Z,10.70
2023-05-06T03:17:57.419Z,10.70
2023-05-06T03:20:24.460Z,10.70
2023-05-06T03:22:51.681Z,10.70
2023-05-06T03:25:18.582Z,10.70
2023-05-06T03:27:45.572Z,10.80
2023-05-06T03:30:13.135Z,10.80
2023-05-06T03:32:40.233Z,10.70
2023-05-06T03:35:08.651Z,10.70
2023-05-06T03:37:35.913Z,10.60
2023-05-06T03:40:04.539Z,10.60
2023-05-06T03:42:31.799Z,10.60
2023-05-06T03:44:58.699Z,10.50
2023-05-06T03:47:25.709Z,10.50
2023-05-06T03:49:52.680Z,10.40
2023-05-06T03:52:19.793Z,10.40
2023-05-06T03:54:46.697Z,10.40
2023-05-06T03:57:13.797Z,10.40
2023-05-06T03:59:40.708Z,10.40
2023-05-06T04:02:07.831Z,10.30
2023-05-06T04:04:34.794Z,10.10
2023-05-06T04:07:02.065Z,10.00
2023-05-06T04:09:28.971Z,9.80
2023-05-06T04:11:56.025Z,9.70
2023-05-06T04:14:23.074Z,9.70
2023-05-06T04:16:50.080Z,9.70
2023-05-06T04:19:17.926Z,9.80
2023-05-06T04:21:44.878Z,9.80
2023-05-06T04:24:11.812Z,9.80
2023-05-06T04:26:38.791Z,9.70
2023-05-06T04:29:05.814Z,9.70
2023-05-06T04:31:33.206Z,9.70
2023-05-06T04:34:00.865Z,9.70
2023-05-06T04:36:28.452Z,9.70
2023-05-06T04:38:55.400Z,9.70
2023-05-06T04:41:23.810Z,9.70
2023-05-06T04:43:50.749Z,9.70
2023-05-06T04:46:17.722Z,9.70
2023-05-06T04:48:44.663Z,9.80
2023-05-06T04:51:11.623Z,9.80
2023-05-06T04:53:38.565Z,9.90
2023-05-06T04:56:05.856Z,10.00
2023-05-06T04:58:32.840Z,10.10
2023-05-06T05:01:06.510Z,10.20
2023-05-06T05:03:33.620Z,10.40
2023-05-06T05:06:00.644Z,10.40
2023-05-06T05:08:27.637Z,10.50
2023-05-06T05:10:54.589Z,10.60
2023-05-06T05:13:21.647Z,10.70
2023-05-06T05:15:48.576Z,10.80
2023-05-06T05:18:15.541Z,10.90
2023-05-06T05:20:42.510Z,10.90
2023-05-06T05:23:09.463Z,11.00
2023-05-06T05:25:36.496Z,11.00
2023-05-06T05:28:04.041Z,11.00
2023-05-06T05:30:31.000Z,11.10
2023-05-06T05:32:57.988Z,11.20
2023-05-06T05:35:25.063Z,11.30
2023-05-06T05:37:52.000Z,11.40
2023-05-06T05:40:18.970Z,11.50
2023-05-06T05:42:46.109Z,11.70
2023-05-06T05:45:13.084Z,11.90
2023-05-06T05:47:40.086Z,12.10
2023-05-06T05:50:08.145Z,12.20
2023-05-06T05:52:35.125Z,12.40
2023-05-06T05:55:02.085Z,12.50
2023-05-06T05:57:29.163Z,12.60
2023-05-06T05:59:56.305Z,12.80
2023-05-06T06:02:23.673Z,13.00
2023-05-06T06:04:50.765Z,13.10
2023-05-06T06:07:17.984Z,13.20
2023-05-06T06:09:46.843Z,13.40
2023-05-06T06:12:14.237Z,13.50
2023-05-06T06:14:41.378Z,13.60
2023-05-06T06:17:08.368Z,13.70
2023-05-06T06:19:35.666Z,13.80
2023-05-06T06:22:02.637Z,13.90
2023-05-06T06:24:29.589Z,14.00
2023-05-06T06:26:56.572Z,14.20
2023-05-06T06:29:23.504Z,14.30
2023-05-06T06:31:50.495Z,14.60
2023-05-06T06:34:20.158Z,14.80
2023-05-06T06:36:47.180Z,14.90
2023-05-06T06:39:14.447Z,15.00
2023-05-06T06:41:41.776Z,15.00
2023-05-06T06:44:08.776Z,15.10
2023-05-06T06:46:35.703Z,15.10
2023-05-06T06:49:02.725Z,15.10
2023-05-06T06:51:29.755Z,15.10
2023-05-06T06:53:56.902Z,15.00
2023-05-06T06:56:23.959Z,15.10
2023-05-06T06:58:53.033Z,15.10
2023-05-06T07:01:20.522Z,15.10
2023-05-06T07:03:47.539Z,15.10
2023-05-06T07:06:14.530Z,15.30
2023-05-06T07:08:41.535Z,15.60
2023-05-06T07:11:08.454Z,15.90
2023-05-06T07:13:36.602Z,16.40
2023-05-06T07:16:03.752Z,16.80
2023-05-06T07:18:30.751Z,16.90
2023-05-06T07:20:57.819Z,16.80
2023-05-06T07:23:24.806Z,16.80
2023-05-06T07:25:51.745Z,16.90
2023-05-06T07:28:18.737Z,17.00
2023-05-06T07:30:46.080Z,17.10
2023-05-06T07:33:13.068Z,16.90
2023-05-06T07:35:40.010Z,16.90
2023-05-06T07:38:06.901Z,16.80
2023-05-06T07:40:34.104Z,16.70
2023-05-06T07:43:02.968Z,16.70
2023-05-06T07:45:29.900Z,16.90
2023-05-06T07:47:57.255Z,17.10
2023-05-06T07:50:24.282Z,17.40
2023-05-06T07:52:51.255Z,17.30
2023-05-06T07:55:18.185Z,17.60
2023-05-06T07:57:45.100Z,18.10
2023-05-06T08:00:12.912Z,18.50
2023-05-06T08:02:44.321Z,18.80
2023-05-06T08:05:11.811Z,18.90
2023-05-06T08:07:41.783Z,18.60
2023-05-06T08:10:09.942Z,18.70
2023-05-06T08:12:38.220Z,19.10
2023-05-06T08:15:06.396Z,19.70
2023-05-06T08:17:33.362Z,20.30
2023-05-06T08:20:00.448Z,20.40
2023-05-06T08:22:27.370Z,20.30
2023-05-06T08:24:55.114Z,20.10
2023-05-06T08:27:22.054Z,20.00
2023-05-06T08:29:48.986Z,20.40
2023-05-06T08:32:16.128Z,20.80
2023-05-06T08:34:43.029Z,20.90
2023-05-06T08:37:10.474Z,21.00
2023-05-06T08:39:37.781Z,20.80
2023-05-06T08:42:05.952Z,20.60
2023-05-06T08:44:33.685Z,20.20
2023-05-06T08:47:00.737Z,20.10
2023-05-06T08:49:27.938Z,19.90
2023-05-06T08:51:55.424Z,20.20
2023-05-06T08:54:26.639Z,20.50
2023-05-06T08:56:54.737Z,20.60
2023-05-06T08:59:25.991Z,20.50
2023-05-06T09:01:53.505Z,20.60
2023-05-06T09:04:20.773Z,20.60
2023-05-06T09:06:47.797Z,20.20
2023-05-06T09:09:15.056Z,20.00
2023-05-06T09:11:42.132Z,20.00
2023-05-06T09:14:16.709Z,20.20
2023-05-06T09:16:46.887Z,20.20
2023-05-06T09:19:16.276Z,20.10
2023-05-06T09:21:49.297Z,20.10
2023-05-06T09:24:17.691Z,20.00
2023-05-06T09:26:46.119Z,20.30
2023-05-06T09:29:13.693Z,20.40
2023-05-06T09:31:46.109Z,20.30
2023-05-06T09:34:15.009Z,20.30
2023-05-06T09:36:42.013Z,20.30
2023-05-06T09:39:09.993Z,20.50
2023-05-06T09:41:37.618Z,20.50
2023-05-06T09:44:05.693Z,20.30
2023-05-06T09:46:33.097Z,20.20
2023-05-06T09:49:00.597Z,20.00
2023-05-06T09:51:30.994Z,20.00
2023-05-06T09:53:59.434Z,20.30
2023-05-06T09:56:27.097Z,20.30
2023-05-06T09:58:56.157Z,20.40
2023-05-06T10:01:35.471Z,20.70
2023-05-06T10:04:09.789Z,20.90
2023-05-06T10:06:40.592Z,20.90
2023-05-06T10:09:09.313Z,20.90
2023-05-06T10:11:36.992Z,21.00
2023-05-06T10:14:05.153Z,21.00
2023-05-06T10:16:37.870Z,21.20
2023-05-06T10:19:08.040Z,21.40
2023-05-06T10:21:39.666Z,21.30
2023-05-06T10:24:11.779Z,21.00
2023-05-06T10:26:40.990Z,20.80
2023-05-06T10:29:11.181Z,20.90
2023-05-06T10:31:49.635Z,20.90
2023-05-06T10:34:19.945Z,20.90
2023-05-06T10:36:50.451Z,20.80
2023-05-06T10:39:17.767Z,20.90
2023-05-06T10:41:44.786Z,21.20
2023-05-06T10:44:12.908Z,21.00
2023-05-06T10:47:00.803Z,20.90
2023-05-06T10:49:27.954Z,20.80
2023-05-06T10:52:21.056Z,20.60
2023-05-06T10:54:50.931Z,20.40
2023-05-06T10:57:18.440Z,20.40
2023-05-06T10:59:47.863Z,20.40
2023-05-06T11:02:19.894Z,20.30
2023-05-06T11:05:01.851Z,20.30
2023-05-06T11:07:28.861Z,20.50
2023-05-06T11:10:08.175Z,20.60
2023-05-06T11:12:46.222Z,20.70
2023-05-06T11:15:39.531Z,20.90
2023-05-06T11:18:24.735Z,21.00
2023-05-06T11:21:34.944Z,21.20
2023-05-06T11:24:01.790Z,21.40
2023-05-06T11:26:28.692Z,21.50
2023-05-06T11:28:56.024Z,21.30
2023-05-06T11:31:23.188Z,21.40
2023-05-06T11:33:55.101Z,21.60
2023-05-06T11:36:22.146Z,21.20
2023-05-06T11:38:52.568Z,21.40
2023-05-06T11:41:21.934Z,21.30
2023-05-06T11:43:50.658Z,21.30
2023-05-06T11:46:22.940Z,21.30
2023-05-06T11:48:50.843Z,21.30
2023-05-06T11:51:24.806Z,21.10
2023-05-06T11:53:54.131Z,21.00
2023-05-06T11:56:21.176Z,21.00
2023-05-06T11:58:48.303Z,21.00
2023-05-06T12:01:15.364Z,20.90
2023-05-06T12:03:42.481Z,21.10
2023-05-06T12:06:09.650Z,21.40
2023-05-06T12:08:37.529Z,21.60
2023-05-06T12:11:08.217Z,21.80
2023-05-06T12:13:36.982Z,21.80
2023-05-06T12:16:06.026Z,21.60
2023-05-06T12:18:33.322Z,21.40
2023-05-06T12:21:06.000Z,21.30
2023-05-06T12:23:33.241Z,21.30
2023-05-06T12:26:06.224Z,21.30
2023-05-06T12:28:36.223Z,21.30
2023-05-06T12:31:22.870Z,21.20
2023-05-06T12:33:50.702Z,21.20
2023-05-06T12:36:18.851Z,21.30
2023-05-06T12:38:57.448Z,21.10
2023-05-06T12:41:37.211Z,21.00
2023-05-06T12:44:37.729Z,20.90
2023-05-06T12:47:26.783Z,21.00
2023-05-06T12:49:59.290Z,20.90
2023-05-06T12:52:29.624Z,20.80
2023-05-06T12:54:57.660Z,20.60
2023-05-06T12:57:24.735Z,20.40
2023-05-06T12:59:51.701Z,20.30
2023-05-06T13:02:19.128Z,20.40
2023-05-06T13:04:47.131Z,20.50
2023-05-06T13:07:14.187Z,20.70
2023-05-06T13:09:41.189Z,21.00
2023-05-06T13:12:08.252Z,21.20
2023-05-06T13:14:36.846Z,21.40
2023-05-06T13:17:06.761Z,21.40
2023-05-06T13:19:34.277Z,21.40
2023-05-06T13:22:01.855Z,21.20
2023-05-06T13:24:29.856Z,21.10
2023-05-06T13:26:57.290Z,21.00
2023-05-06T13:29:24.684Z,20.90
2023-05-06T13:31:51.837Z,20.80
2023-05-06T13:34:19.005Z,20.60
2023-05-06T13:36:46.852Z,20.50
2023-05-06T13:39:13.901Z,20.30
2023-05-06T13:41:40.977Z,20.30
2023-05-06T13:44:07.982Z,20.20
2023-05-06T13:46:35.012Z,20.20
2023-05-06T13:49:01.997Z,20.00
2023-05-06T13:51:32.623Z,20.00
2023-05-06T13:53:59.541Z,20.00
2023-05-06T13:56:26.947Z,19.90
2023-05-06T13:58:54.135Z,19.90
2023-05-06T14:01:21.933Z,19.80
2023-05-06T14:03:49.115Z,19.80
2023-05-06T14:06:16.360Z,19.80
2023-05-06T14:08:43.537Z,19.90
2023-05-06T14:11:10.553Z,20.00
2023-05-06T14:13:39.050Z,20.20
2023-05-06T14:16:06.510Z,20.30
2023-05-06T14:18:33.904Z,20.50
2023-05-06T14:21:00.944Z,20.70
2023-05-06T14:23:27.916Z,20.70
2023-05-06T14:25:54.878Z,20.70
2023-05-06T14:28:21.864Z,20.70
2023-05-06T14:30:50.859Z,20.50
2023-05-06T14:33:17.782Z,20.40
2023-05-06T14:35:46.119Z,20.30
2023-05-06T14:38:13.196Z,20.30
2023-05-06T14:40:40.272Z,20.40
2023-05-06T14:43:07.927Z,20.50
2023-05-06T14:45:35.465Z,20.50
2023-05-06T14:48:04.145Z,20.60
2023-05-06T14:50:31.413Z,20.60
2023-05-06T14:52:58.437Z,20.50
2023-05-06T14:55:25.903Z,20.30
2023-05-06T14:57:53.028Z,20.10
2023-05-06T15:00:20.610Z,19.90
2023-05-06T15:02:47.723Z,19.80
2023-05-06T15:05:15.141Z,19.70
2023-05-06T15:07:42.359Z,19.60
2023-05-06T15:10:09.747Z,19.50
2023-05-06T15:12:39.436Z,19.40
2023-05-06T15:15:07.809Z,19.40
2023-05-06T15:17:34.831Z,19.40
2023-05-06T15:20:01.991Z,19.40
2023-05-06T15:22:29.007Z,19.40
2023-05-06T15:24:56.060Z,19.40
2023-05-06T15:27:23.123Z,19.40
2023-05-06T15:29:50.218Z,19.40
2023-05-06T15:32:17.153Z,19.50
2023-05-06T15:34:44.123Z,19.50
2023-05-06T15:37:11.174Z,19.50
2023-05-06T15:39:38.295Z,19.60
2023-05-06T15:42:05.610Z,19.70
2023-05-06T15:44:33.946Z,19.80
2023-05-06T15:47:01.172Z,19.80
2023-05-06T15:52:00.768Z,19.70
2023-05-06T15:54:28.994Z,19.70
2023-05-06T15:56:56.811Z,19.70
2023-05-06T15:59:24.000Z,19.80
2023-05-06T16:02:25.329Z,19.80
2023-05-06T16:04:38.100Z,19.70
2023-05-06T16:07:05.268Z,19.70
2023-05-06T16:09:32.172Z,19.70
2023-05-06T16:11:59.159Z,19.70
2023-05-06T16:14:26.201Z,19.70
2023-05-06T16:16:53.325Z,19.60
2023-05-06T16:19:20.345Z,19.60
2023-05-06T16:21:48.358Z,19.50
2023-05-06T16:24:16.032Z,19.50
2023-05-06T16:26:42.954Z,19.50
2023-05-06T16:29:10.249Z,19.50
2023-05-06T16:31:37.788Z,19.50
2023-05-06T16:34:05.012Z,19.40
2023-05-06T16:36:32.024Z,19.40
2023-05-06T16:38:58.981Z,19.50
2023-05-06T16:41:25.972Z,19.50
2023-05-06T16:43:52.962Z,19.60
2023-05-06T16:46:21.376Z,19.60
2023-05-06T16:48:50.013Z,19.60
2023-05-06T16:51:17.098Z,19.60
2023-05-06T16:53:44.066Z,19.70
2023-05-06T16:56:11.149Z,19.80
2023-05-06T16:58:38.176Z,19.80
2023-05-06T17:01:08.085Z,19.80
2023-05-06T17:03:38.562Z,19.70
2023-05-06T17:06:05.870Z,19.70
2023-05-06T17:08:36.271Z,19.70
2023-05-06T17:11:06.936Z,19.80
2023-05-06T17:13:34.700Z,19.80
2023-05-06T17:16:01.769Z,19.80
2023-05-06T17:18:28.813Z,19.70
2023-05-06T17:20:57.161Z,19.80
2023-05-06T17:23:24.819Z,19.80
2023-05-06T17:25:52.069Z,19.80
2023-05-06T17:28:19.201Z,19.80
2023-05-06T17:30:46.682Z,19.80
2023-05-06T17:33:13.898Z,19.70
2023-05-06T17:35:40.876Z,19.60
2023-05-06T17:38:09.555Z,19.50
2023-05-06T17:40:36.480Z,19.50
2023-05-06T17:43:03.665Z,19.50
2023-05-06T17:45:30.897Z,19.50
2023-05-06T17:47:57.934Z,19.30
2023-05-06T17:50:24.994Z,19.30
2023-05-06T17:52:54.464Z,19.10
2023-05-06T17:55:21.981Z,19.10
2023-05-06T17:57:50.277Z,19.10
2023-05-06T18:00:17.549Z,19.10
2023-05-06T18:02:45.302Z,19.10
2023-05-06T18:05:13.521Z,19.00
2023-05-06T18:07:41.035Z,19.10
2023-05-06T18:10:08.938Z,19.10
2023-05-06T18:12:36.045Z,19.10
2023-05-06T18:15:03.282Z,19.00
2023-05-06T18:17:30.333Z,19.00
2023-05-06T18:19:57.316Z,19.10
2023-05-06T18:22:24.434Z,19.00
2023-05-06T18:24:55.340Z,19.00
2023-05-06T18:27:23.112Z,18.90
2023-05-06T18:29:50.154Z,18.80
2023-05-06T18:32:20.064Z,18.80
2023-05-06T18:34:47.009Z,18.80
2023-05-06T18:37:13.970Z,18.80
2023-05-06T18:39:42.632Z,18.70
2023-05-06T18:42:09.926Z,18.60
2023-05-06T18:44:37.479Z,18.50
2023-05-06T18:47:04.615Z,18.50
2023-05-06T18:49:31.738Z,18.50
2023-05-06T18:51:58.930Z,18.40
2023-05-06T18:54:25.963Z,18.40
2023-05-06T18:56:52.963Z,18.40
2023-05-06T18:59:20.277Z,18.30
2023-05-06T19:01:47.336Z,18.30
2023-05-06T19:04:14.771Z,18.30
2023-05-06T19:06:42.209Z,18.20
2023-05-06T19:09:09.204Z,18.10
2023-05-06T19:11:36.194Z,18.10
2023-05-06T19:14:03.599Z,18.10
2023-05-06T19:16:30.587Z,18.00
2023-05-06T19:18:57.593Z,18.00
2023-05-06T19:21:24.655Z,17.90
2023-05-06T19:23:53.132Z,17.90
2023-05-06T19:26:20.135Z,17.80
2023-05-06T19:28:47.099Z,17.70
2023-05-06T19:31:14.134Z,17.70
2023-05-06T19:33:43.078Z,17.60
2023-05-06T19:36:10.958Z,17.60
2023-05-06T19:38:38.386Z,17.60
2023-05-06T19:41:06.176Z,17.50
2023-05-06T19:43:33.270Z,17.40
2023-05-06T19:46:00.451Z,17.40
2023-05-06T19:48:27.449Z,17.30
2023-05-06T19:50:54.508Z,17.20
2023-05-06T19:53:22.863Z,17.10
2023-05-06T19:55:50.029Z,17.00
2023-05-06T19:58:18.880Z,17.00
2023-05-06T20:00:45.902Z,16.90
2023-05-06T20:03:13.078Z,16.90
2023-05-06T20:05:40.147Z,16.90
2023-05-06T20:08:10.944Z,16.80
2023-05-06T20:10:38.723Z,16.80
2023-05-06T20:13:07.020Z,16.70
2023-05-06T20:15:35.462Z,16.70
2023-05-06T20:18:02.499Z,16.70
2023-05-06T20:20:34.493Z,16.70
2023-05-06T20:23:02.375Z,16.70
2023-05-06T20:25:30.257Z,16.70
2023-05-06T20:27:58.406Z,16.60
2023-05-06T20:30:26.803Z,16.60
2023-05-06T20:32:54.032Z,16.50
2023-05-06T20:35:21.231Z,16.50
2023-05-06T20:37:48.208Z,16.50
2023-05-06T20:40:15.296Z,16.40
2023-05-06T20:42:42.316Z,16.40
2023-05-06T20:45:09.904Z,16.40
2023-05-06T20:47:37.197Z,16.40
2023-05-06T20:50:04.795Z,16.30
2023-05-06T20:52:33.942Z,16.20
2023-05-06T20:55:01.701Z,16.20
2023-05-06T20:57:28.709Z,16.10
2023-05-06T20:59:56.154Z,16.10
2023-05-06T21:02:23.210Z,16.10
2023-05-06T21:04:50.972Z,16.10
2023-05-06T21:07:18.093Z,16.10
2023-05-06T21:09:45.747Z,16.10
2023-05-06T21:12:12.858Z,16.00
2023-05-06T21:14:39.909Z,16.00
2023-05-06T21:17:08.411Z,15.90
2023-05-06T21:19:35.689Z,15.90
2023-05-06T21:22:02.902Z,15.80
2023-05-06T21:24:31.025Z,15.90
2023-05-06T21:26:58.352Z,15.90
2023-05-06T21:29:25.480Z,15.90
2023-05-06T21:31:52.398Z,15.90
2023-05-06T21:34:19.415Z,15.80
2023-05-06T21:36:46.376Z,15.80
2023-05-06T21:39:14.475Z,15.80
2023-05-06T21:41:41.707Z,15.80
2023-05-06T21:44:09.395Z,15.80
2023-05-06T21:46:37.795Z,15.80
2023-05-06T21:49:05.210Z,15.80
2023-05-06T21:51:34.969Z,15.80
2023-05-06T21:54:02.959Z,15.80
2023-05-06T21:56:30.087Z,15.80
2023-05-06T21:58:57.021Z,15.80
2023-05-06T22:01:29.183Z,15.80
2023-05-06T22:03:56.535Z,15.80
2023-05-06T22:06:23.820Z,15.80
2023-05-06T22:08:51.424Z,15.80
2023-05-06T22:11:18.534Z,15.70
2023-05-06T22:13:45.689Z,15.70
2023-05-06T22:16:13.170Z,15.70
2023-05-06T22:18:41.581Z,15.70
2023-05-06T22:21:09.674Z,15.70
2023-05-06T22:23:36.953Z,15.70
2023-05-06T22:26:04.252Z,15.60
2023-05-06T22:28:31.245Z,15.60
2023-05-06T22:30:58.213Z,15.60
2023-05-06T22:33:27.062Z,15.60
2023-05-06T22:35:55.384Z,15.50
2023-05-06T22:38:22.373Z,15.50
2023-05-06T22:40:49.464Z,15.50
2023-05-06T22:43:16.409Z,15.50
2023-05-06T22:45:43.529Z,15.50
2023-05-06T22:48:11.005Z,15.50
2023-05-06T22:50:38.178Z,15.40
2023-05-06T22:53:14.501Z,15.40
2023-05-06T22:55:42.894Z,15.40
2023-05-06T22:58:09.968Z,15.30
2023-05-06T23:00:37.266Z,15.30
2023-05-06T23:03:05.322Z,15.30
2023-05-06T23:05:32.278Z,15.30
2023-05-06T23:07:59.235Z,15.30
2023-05-06T23:10:26.819Z,15.40
2023-05-06T23:12:53.817Z,15.40
2023-05-06T23:15:20.910Z,15.40
2023-05-06T23:17:47.930Z,15.40
2023-05-06T23:20:17.223Z,15.40
2023-05-06T23:22:44.183Z,15.40
2023-05-06T23:25:12.093Z,15.50
2023-05-06T23:27:40.607Z,15.50
2023-05-06T23:30:09.184Z,15.50
2023-05-06T23:32:37.291Z,15.40
2023-05-06T23:35:04.898Z,15.50
2023-05-06T23:37:31.849Z,15.50
2023-05-06T23:39:58.802Z,15.50
2023-05-06T23:42:26.297Z,15.50
2023-05-06T23:44:53.612Z,15.50
2023-05-06T23:47:20.692Z,15.50
2023-05-06T23:49:47.648Z,15.50
2023-05-06T23:52:14.637Z,15.50
2023-05-06T23:54:41.650Z,15.50
2023-05-06T23:57:08.625Z,15.50
2023-05-06T23:59:35.728Z,15.50
